aviador You're here:

KNCA Decoded Metar

JACKSONVILLE in NC, USA
Report Time2017-10-23 10:56:00
UTC Time2017-10-23 11:22:06
Flight Rules vfr VFR
WindCalm
Visibility9999 m
Phenomena:N/A
Clouds:Few 060 Hf
CeilingNone
Temp17°C (ISA +2)
Dew Point17°C (100% RH)
QNH1022 hPa
Density Alt220 ft
Elevation26 ft
Report Wrong Elevation
Raw Report
KNCA 231056Z AUTO 00000KT 10SM FEW060 17/17 A3018 RMK AO2 SLP222
T01670167=

Extra information for KNCA:More info

Metar Taf Metar & Taf Last 4 Metars F.Rules Stats Wind Profile Meteogram Temp Stats Airport Information Weather charts Add Link Nearby VenuesMetar ALERT Operation Metar Decoded Social comments

AIRNAV info for KNCA